createdAt,value
2017-12-29T00:01:10.202Z,8.63
2017-12-29T00:03:37.846Z,8.90
2017-12-29T00:06:05.446Z,7.03
2017-12-29T00:08:33.910Z,8.00
2017-12-29T00:11:01.470Z,7.30
2017-12-29T00:13:29.042Z,7.40
2017-12-29T00:15:56.607Z,7.37
2017-12-29T00:18:24.181Z,8.27
2017-12-29T00:20:51.755Z,8.13
2017-12-29T00:23:20.141Z,8.40
2017-12-29T00:25:47.705Z,8.63
2017-12-29T00:28:15.266Z,7.20
2017-12-29T00:30:42.830Z,6.03
2017-12-29T00:33:10.438Z,8.17
2017-12-29T00:35:38.006Z,7.20
2017-12-29T00:38:05.580Z,8.20
2017-12-29T00:40:33.150Z,6.97
2017-12-29T00:43:00.709Z,7.90
2017-12-29T00:45:28.270Z,7.40
2017-12-29T00:47:55.838Z,6.83
2017-12-29T00:50:23.405Z,8.60
2017-12-29T00:52:50.977Z,8.30
2017-12-29T00:55:18.547Z,8.73
2017-12-29T00:57:46.110Z,8.10
2017-12-29T01:00:13.669Z,8.37
2017-12-29T01:02:41.230Z,7.80
2017-12-29T01:05:08.803Z,7.80
2017-12-29T01:07:36.379Z,8.07
2017-12-29T01:10:03.951Z,8.10
2017-12-29T01:12:31.522Z,8.30
2017-12-29T01:14:59.167Z,8.50
2017-12-29T01:17:26.826Z,7.33
2017-12-29T01:19:54.393Z,7.63
2017-12-29T01:22:21.962Z,7.07
2017-12-29T01:24:49.535Z,6.73
2017-12-29T01:27:18.287Z,8.40
2017-12-29T01:29:45.849Z,8.70
2017-12-29T01:32:13.522Z,7.83
2017-12-29T01:34:41.089Z,8.40
2017-12-29T01:37:08.666Z,8.65
2017-12-29T01:39:36.225Z,7.77
2017-12-29T01:42:03.802Z,9.10
2017-12-29T01:44:31.371Z,8.80
2017-12-29T01:46:58.939Z,8.60
2017-12-29T01:49:26.510Z,8.60
2017-12-29T01:51:54.082Z,7.97
2017-12-29T01:54:21.645Z,8.13
2017-12-29T01:56:49.234Z,6.73
2017-12-29T01:59:16.899Z,7.20
2017-12-29T02:01:44.562Z,9.37
2017-12-29T02:04:12.129Z,7.83
2017-12-29T02:06:39.702Z,8.88
2017-12-29T02:09:07.985Z,8.70
2017-12-29T02:11:35.594Z,7.50
2017-12-29T02:16:36.992Z,7.80
2017-12-29T02:19:04.596Z,8.50
2017-12-29T02:21:32.267Z,8.70
2017-12-29T02:23:59.874Z,8.03
2017-12-29T02:26:27.448Z,7.50
2017-12-29T02:28:55.918Z,7.97
2017-12-29T02:31:23.574Z,7.47
2017-12-29T02:33:51.245Z,7.40
2017-12-29T02:36:18.907Z,7.47
2017-12-29T02:38:46.502Z,6.10
2017-12-29T02:41:14.066Z,7.60
2017-12-29T02:43:42.531Z,7.53
2017-12-29T02:46:10.090Z,7.40
2017-12-29T02:48:37.664Z,7.27
2017-12-29T02:51:05.225Z,7.40
2017-12-29T02:53:32.798Z,7.10
2017-12-29T02:56:00.413Z,6.37
2017-12-29T02:58:28.985Z,8.30
2017-12-29T03:00:56.552Z,7.90
2017-12-29T03:03:24.217Z,6.00
2017-12-29T03:05:52.609Z,6.97
2017-12-29T03:08:21.014Z,7.63
2017-12-29T03:10:48.617Z,7.40
2017-12-29T03:13:16.196Z,6.83
2017-12-29T03:15:44.608Z,7.40
2017-12-29T03:18:12.255Z,7.43
2017-12-29T03:20:39.825Z,8.00
2017-12-29T03:23:07.398Z,6.93
2017-12-29T03:25:35.699Z,6.13
2017-12-29T03:28:03.309Z,7.40
2017-12-29T03:30:31.789Z,7.07
2017-12-29T03:33:00.198Z,7.03
2017-12-29T03:35:27.834Z,6.30
2017-12-29T03:37:55.401Z,7.40
2017-12-29T03:40:23.098Z,6.30
2017-12-29T03:42:50.673Z,6.90
2017-12-29T03:45:18.246Z,6.77
2017-12-29T03:47:45.813Z,6.60
2017-12-29T03:50:13.418Z,6.87
2017-12-29T03:52:40.989Z,6.80
2017-12-29T03:55:09.318Z,5.80
2017-12-29T03:57:36.892Z,6.73
2017-12-29T04:00:05.361Z,8.33
2017-12-29T04:02:32.978Z,6.70
2017-12-29T04:05:00.614Z,8.00
2017-12-29T04:07:28.312Z,6.63
2017-12-29T04:09:55.877Z,8.33
2017-12-29T04:12:23.447Z,6.43
2017-12-29T04:14:51.095Z,7.40
2017-12-29T04:17:18.658Z,6.80
2017-12-29T04:19:46.229Z,6.63
2017-12-29T04:22:13.797Z,6.40
2017-12-29T04:24:41.459Z,7.00
2017-12-29T04:27:09.145Z,6.30
2017-12-29T04:29:36.829Z,8.20
2017-12-29T04:32:04.401Z,7.50
2017-12-29T04:34:31.965Z,7.97
2017-12-29T04:36:59.538Z,7.50
2017-12-29T04:39:27.114Z,7.80
2017-12-29T04:41:54.699Z,7.50
2017-12-29T04:44:23.081Z,8.20
2017-12-29T04:46:50.663Z,7.78
2017-12-29T04:49:18.240Z,7.95
2017-12-29T04:51:45.807Z,8.60
2017-12-29T04:54:14.149Z,6.83
2017-12-29T04:56:41.724Z,7.83
2017-12-29T04:59:09.294Z,6.90
2017-12-29T05:01:36.918Z,8.90
2017-12-29T05:04:04.493Z,7.50
2017-12-29T05:06:32.073Z,7.85
2017-12-29T05:08:59.678Z,8.48
2017-12-29T05:11:27.248Z,9.20
2017-12-29T05:13:55.853Z,9.20
2017-12-29T05:16:23.467Z,8.07
2017-12-29T05:18:51.033Z,7.57
2017-12-29T05:21:18.603Z,8.10
2017-12-29T05:23:46.216Z,10.50
2017-12-29T05:26:13.798Z,9.05
2017-12-29T05:28:42.293Z,7.65
2017-12-29T05:31:09.862Z,8.90
2017-12-29T05:33:37.438Z,8.30
2017-12-29T05:36:05.002Z,8.13
2017-12-29T05:38:32.574Z,8.87
2017-12-29T05:41:00.153Z,8.80
2017-12-29T05:43:27.724Z,7.80
2017-12-29T05:45:55.294Z,9.10
2017-12-29T05:48:22.910Z,9.40
2017-12-29T05:50:50.483Z,9.23
2017-12-29T05:53:18.056Z,7.97
2017-12-29T05:55:45.628Z,8.90
2017-12-29T05:58:13.210Z,8.20
2017-12-29T06:00:40.828Z,9.98
2017-12-29T06:03:08.398Z,9.73
2017-12-29T06:05:36.901Z,8.10
2017-12-29T06:08:04.578Z,9.00
2017-12-29T06:10:32.147Z,8.57
2017-12-29T06:12:59.726Z,9.13
2017-12-29T06:15:27.334Z,8.25
2017-12-29T06:17:54.930Z,8.83
2017-12-29T06:20:23.254Z,7.70
2017-12-29T06:22:50.834Z,9.10
2017-12-29T06:25:18.407Z,9.23
2017-12-29T06:27:46.874Z,7.93
2017-12-29T06:30:14.459Z,7.50
2017-12-29T06:32:42.034Z,8.10
2017-12-29T06:35:09.750Z,7.67
2017-12-29T06:37:38.138Z,7.90
2017-12-29T06:40:06.618Z,8.13
2017-12-29T06:42:34.998Z,8.10
2017-12-29T06:45:03.109Z,7.30
2017-12-29T06:47:30.839Z,7.40
2017-12-29T06:49:59.313Z,7.23
2017-12-29T06:52:27.578Z,6.80
2017-12-29T06:54:55.927Z,6.80
2017-12-29T06:57:23.506Z,7.30
2017-12-29T06:59:51.069Z,7.50
2017-12-29T07:02:19.654Z,7.73
2017-12-29T07:04:47.287Z,6.90
2017-12-29T07:07:14.866Z,7.50
2017-12-29T07:09:42.507Z,6.80
2017-12-29T07:12:10.170Z,6.07
2017-12-29T07:14:38.501Z,6.53
2017-12-29T07:17:06.074Z,6.43
2017-12-29T07:19:33.645Z,6.40
2017-12-29T07:22:01.232Z,6.63
2017-12-29T07:24:28.872Z,8.10
2017-12-29T07:27:11.703Z,7.40
2017-12-29T07:29:47.345Z,6.30
2017-12-29T07:32:15.333Z,6.83
2017-12-29T07:34:42.993Z,6.17
2017-12-29T07:37:10.562Z,6.53
2017-12-29T07:39:38.141Z,6.87
2017-12-29T07:42:05.777Z,6.43
2017-12-29T07:44:33.354Z,6.97
2017-12-29T07:47:00.919Z,6.87
2017-12-29T07:49:28.566Z,7.23
2017-12-29T07:51:56.142Z,6.70
2017-12-29T07:54:23.750Z,7.97
2017-12-29T07:56:51.357Z,7.00
2017-12-29T07:59:18.965Z,7.20
2017-12-29T08:01:46.577Z,5.30
2017-12-29T08:04:14.237Z,5.93
2017-12-29T08:06:41.813Z,6.90
2017-12-29T08:09:10.412Z,6.90
2017-12-29T08:11:38.045Z,6.73
2017-12-29T08:14:05.626Z,7.00
2017-12-29T08:16:33.275Z,6.27
2017-12-29T08:19:00.930Z,6.30
2017-12-29T08:21:28.506Z,7.20
2017-12-29T08:23:56.078Z,7.83
2017-12-29T08:26:23.765Z,5.47
2017-12-29T08:28:51.336Z,6.00
2017-12-29T08:31:20.319Z,6.17
2017-12-29T08:33:47.938Z,6.03
2017-12-29T08:36:15.513Z,6.17
2017-12-29T08:38:43.093Z,5.80
2017-12-29T08:41:10.861Z,7.07
2017-12-29T08:43:38.450Z,6.10
2017-12-29T08:46:06.028Z,7.27
2017-12-29T08:48:33.607Z,6.63
2017-12-29T08:51:01.174Z,6.60
2017-12-29T08:53:29.616Z,6.00
2017-12-29T08:55:57.570Z,7.43
2017-12-29T08:58:26.182Z,6.53
2017-12-29T09:00:53.759Z,5.70
2017-12-29T09:03:22.152Z,5.83
2017-12-29T09:05:49.854Z,7.10
2017-12-29T09:08:18.230Z,6.73
2017-12-29T09:10:45.802Z,6.77
2017-12-29T09:13:13.374Z,5.13
2017-12-29T09:15:41.114Z,6.40
2017-12-29T09:18:08.696Z,5.40
2017-12-29T09:20:36.266Z,7.10
2017-12-29T09:23:03.883Z,6.23
2017-12-29T09:25:31.464Z,5.50
2017-12-29T09:27:59.082Z,5.60
2017-12-29T09:30:26.663Z,6.10
2017-12-29T09:32:54.418Z,5.80
2017-12-29T09:35:21.986Z,6.40
2017-12-29T09:37:50.342Z,5.73
2017-12-29T09:40:17.939Z,7.70
2017-12-29T09:42:45.546Z,8.00
2017-12-29T09:45:13.205Z,6.37
2017-12-29T09:47:40.829Z,6.40
2017-12-29T09:50:08.397Z,6.97
2017-12-29T09:52:36.070Z,7.30
2017-12-29T09:55:03.698Z,6.60
2017-12-29T09:57:31.351Z,7.40
2017-12-29T09:59:58.932Z,5.97
2017-12-29T10:02:26.512Z,7.00
2017-12-29T10:04:54.131Z,7.40
2017-12-29T10:07:21.794Z,6.03
2017-12-29T10:09:49.519Z,6.30
2017-12-29T10:12:17.128Z,6.40
2017-12-29T10:14:44.753Z,6.57
2017-12-29T10:17:12.363Z,6.20
2017-12-29T10:19:40.016Z,6.90
2017-12-29T10:22:07.600Z,6.33
2017-12-29T10:24:35.177Z,6.20
2017-12-29T10:27:08.027Z,6.77
2017-12-29T10:29:35.610Z,5.90
2017-12-29T10:32:03.186Z,7.00
2017-12-29T10:34:30.775Z,7.07
2017-12-29T10:36:58.346Z,6.47
2017-12-29T10:39:25.931Z,6.27
2017-12-29T10:41:54.444Z,6.93
2017-12-29T10:44:22.062Z,6.50
2017-12-29T10:46:50.660Z,6.60
2017-12-29T10:49:18.243Z,6.40
2017-12-29T10:51:45.875Z,6.60
2017-12-29T10:54:14.256Z,7.60
2017-12-29T10:56:41.887Z,6.50
2017-12-29T10:59:09.500Z,5.90
2017-12-29T11:01:37.143Z,7.00
2017-12-29T11:04:04.757Z,6.53
2017-12-29T11:06:32.325Z,6.60
2017-12-29T11:08:59.899Z,5.90
2017-12-29T11:11:27.511Z,5.93
2017-12-29T11:13:55.083Z,5.77
2017-12-29T11:16:23.585Z,5.80
2017-12-29T11:18:51.158Z,6.40
2017-12-29T11:21:19.547Z,4.47
2017-12-29T11:23:47.121Z,6.77
2017-12-29T11:26:14.695Z,5.57
2017-12-29T11:28:42.267Z,6.57
2017-12-29T11:31:09.838Z,5.50
2017-12-29T11:33:37.450Z,5.03
2017-12-29T11:36:05.879Z,5.80
2017-12-29T11:38:33.486Z,5.80
2017-12-29T11:41:01.095Z,6.20
2017-12-29T11:43:28.666Z,5.27
2017-12-29T11:45:56.307Z,5.20
2017-12-29T11:48:24.782Z,5.33
2017-12-29T11:50:52.402Z,5.30
2017-12-29T11:53:19.981Z,6.10
2017-12-29T11:55:47.572Z,5.20
2017-12-29T11:58:15.147Z,5.33
2017-12-29T12:00:42.719Z,5.43
2017-12-29T12:03:10.286Z,5.57
2017-12-29T12:05:37.865Z,5.43
2017-12-29T12:08:05.445Z,7.10
2017-12-29T12:10:33.007Z,5.67
2017-12-29T12:13:00.574Z,6.37
2017-12-29T12:15:28.847Z,5.43
2017-12-29T12:17:56.495Z,6.27
2017-12-29T12:20:24.100Z,5.60
2017-12-29T12:22:51.675Z,5.53
2017-12-29T12:25:20.019Z,4.90
2017-12-29T12:27:47.590Z,6.07
2017-12-29T12:30:15.203Z,5.93
2017-12-29T12:32:42.891Z,5.57
2017-12-29T12:35:10.471Z,6.47
2017-12-29T12:37:38.266Z,4.77
2017-12-29T12:40:05.864Z,4.60
2017-12-29T12:42:33.446Z,6.20
2017-12-29T12:45:01.852Z,5.60
2017-12-29T12:47:29.523Z,5.10
2017-12-29T12:49:58.101Z,5.77
2017-12-29T12:52:25.766Z,6.30
2017-12-29T12:54:53.685Z,6.37
2017-12-29T12:57:21.263Z,5.13
2017-12-29T12:59:48.831Z,5.23
2017-12-29T13:02:16.398Z,5.00
2017-12-29T13:04:43.963Z,5.03
2017-12-29T13:07:11.913Z,5.20
2017-12-29T13:09:39.510Z,6.00
2017-12-29T13:12:07.079Z,5.70
2017-12-29T13:14:34.698Z,5.70
2017-12-29T13:17:02.269Z,4.50
2017-12-29T13:19:29.844Z,5.27
2017-12-29T13:21:57.419Z,4.90
2017-12-29T13:24:25.043Z,5.17
2017-12-29T13:26:52.626Z,6.30
2017-12-29T13:29:20.201Z,5.33
2017-12-29T13:31:47.799Z,4.23
2017-12-29T13:34:15.423Z,5.37
2017-12-29T13:36:43.092Z,5.60
2017-12-29T13:39:10.666Z,4.50
2017-12-29T13:41:39.246Z,4.23
2017-12-29T13:44:06.830Z,4.85
2017-12-29T13:46:35.183Z,5.00
2017-12-29T13:49:02.751Z,5.90
2017-12-29T13:51:30.403Z,4.87
2017-12-29T13:53:58.668Z,5.10
2017-12-29T13:56:26.299Z,4.73
2017-12-29T13:58:53.895Z,4.57
2017-12-29T14:01:21.562Z,3.70
2017-12-29T14:03:49.131Z,5.50
2017-12-29T14:06:16.707Z,4.70
2017-12-29T14:08:44.275Z,4.72
2017-12-29T14:11:11.868Z,5.90
2017-12-29T14:13:39.438Z,5.37
2017-12-29T14:16:07.968Z,5.87
2017-12-29T14:18:35.646Z,6.23
2017-12-29T14:21:03.270Z,5.67
2017-12-29T14:23:30.935Z,5.73
2017-12-29T14:25:58.550Z,5.90
2017-12-29T14:28:26.128Z,5.40
2017-12-29T14:30:53.824Z,4.93
2017-12-29T14:33:21.394Z,6.10
2017-12-29T14:35:48.962Z,6.00
2017-12-29T14:38:16.578Z,4.93
2017-12-29T14:40:44.150Z,5.27
2017-12-29T14:43:11.764Z,7.00
2017-12-29T14:45:39.341Z,4.87
2017-12-29T14:48:06.959Z,5.33
2017-12-29T14:50:34.580Z,7.50
2017-12-29T14:53:02.146Z,4.93
2017-12-29T14:55:29.710Z,5.00
2017-12-29T14:57:57.283Z,5.77
2017-12-29T15:00:24.850Z,5.33
2017-12-29T15:02:52.450Z,6.40
2017-12-29T15:05:20.021Z,5.00
2017-12-29T15:07:47.594Z,5.50
2017-12-29T15:10:15.201Z,4.30
2017-12-29T15:12:42.766Z,4.83
2017-12-29T15:15:10.423Z,5.00
2017-12-29T15:17:38.086Z,4.47
2017-12-29T15:20:05.703Z,4.33
2017-12-29T15:22:33.276Z,4.73
2017-12-29T15:25:00.838Z,5.33
2017-12-29T15:27:28.429Z,3.93
2017-12-29T15:29:56.106Z,4.83
2017-12-29T15:32:23.670Z,4.43
2017-12-29T15:34:52.026Z,4.33
2017-12-29T15:37:20.419Z,5.37
2017-12-29T15:39:48.084Z,4.53
2017-12-29T15:42:16.454Z,4.70
2017-12-29T15:44:45.004Z,5.43
2017-12-29T15:47:12.644Z,4.40
2017-12-29T15:49:40.235Z,5.70
2017-12-29T15:52:07.850Z,4.10
2017-12-29T15:54:36.192Z,3.83
2017-12-29T15:57:04.535Z,4.77
2017-12-29T15:59:33.022Z,4.37
2017-12-29T16:02:00.606Z,3.85
2017-12-29T16:04:28.174Z,4.00
2017-12-29T16:06:55.743Z,5.10
2017-12-29T16:09:23.414Z,4.60
2017-12-29T16:11:50.995Z,4.65
2017-12-29T16:14:18.575Z,4.93
2017-12-29T16:16:46.235Z,5.50
2017-12-29T16:19:13.858Z,6.27
2017-12-29T16:21:41.478Z,6.43
2017-12-29T16:24:09.090Z,5.33
2017-12-29T16:26:36.681Z,4.87
2017-12-29T16:29:05.980Z,4.55
2017-12-29T16:31:33.584Z,4.10
2017-12-29T16:34:01.194Z,4.33
2017-12-29T16:36:28.872Z,4.20
2017-12-29T16:38:56.443Z,4.60
2017-12-29T16:41:24.942Z,4.60
2017-12-29T16:43:53.318Z,4.57
2017-12-29T16:46:20.899Z,4.78
2017-12-29T16:48:49.396Z,4.35
2017-12-29T16:51:17.854Z,4.18
2017-12-29T16:53:46.300Z,5.68
2017-12-29T16:56:13.931Z,9.33
2017-12-29T16:58:42.401Z,8.23
2017-12-29T17:01:10.007Z,8.37
2017-12-29T17:03:37.630Z,7.60
2017-12-29T17:06:05.336Z,5.65
2017-12-29T17:08:33.059Z,4.65
2017-12-29T17:11:01.448Z,4.62
2017-12-29T17:13:29.808Z,5.55
2017-12-29T17:15:57.415Z,4.93
2017-12-29T17:18:25.047Z,5.75
2017-12-29T17:20:52.669Z,5.57
2017-12-29T17:23:20.247Z,7.05
2017-12-29T17:25:47.899Z,6.20
2017-12-29T17:28:15.473Z,6.07
2017-12-29T17:30:43.110Z,5.72
2017-12-29T17:33:11.743Z,5.80
2017-12-29T17:35:39.370Z,5.03
2017-12-29T17:38:07.837Z,4.72
2017-12-29T17:40:36.167Z,5.72
2017-12-29T17:43:04.608Z,4.30
2017-12-29T17:45:32.921Z,5.10
2017-12-29T17:48:00.547Z,3.40
2017-12-29T17:50:28.131Z,3.70
2017-12-29T17:52:55.811Z,4.93
2017-12-29T17:55:23.470Z,4.60
2017-12-29T17:57:51.051Z,4.82
2017-12-29T18:00:18.670Z,5.82
2017-12-29T18:02:46.252Z,4.70
2017-12-29T18:05:13.864Z,5.00
2017-12-29T18:07:41.535Z,4.53
2017-12-29T18:10:09.283Z,4.00
2017-12-29T18:12:36.872Z,5.30
2017-12-29T18:15:04.566Z,6.87
2017-12-29T18:17:32.369Z,6.57
2017-12-29T18:20:00.105Z,5.32
2017-12-29T18:22:27.702Z,4.95
2017-12-29T18:24:55.290Z,5.45
2017-12-29T18:27:22.891Z,4.35
2017-12-29T18:29:50.551Z,5.10
2017-12-29T18:32:18.130Z,5.55
2017-12-29T18:34:45.775Z,5.10
2017-12-29T18:37:15.077Z,4.35
2017-12-29T18:39:44.180Z,5.12
2017-12-29T18:42:11.795Z,5.03
2017-12-29T18:44:39.382Z,5.57
2017-12-29T18:47:07.119Z,6.03
2017-12-29T18:49:35.663Z,6.40
2017-12-29T18:52:03.267Z,5.65
2017-12-29T18:54:31.894Z,4.10
2017-12-29T18:57:00.407Z,5.62
2017-12-29T18:59:27.990Z,4.93
2017-12-29T19:01:55.598Z,5.10
2017-12-29T19:04:23.259Z,5.80
2017-12-29T19:06:50.854Z,4.43
2017-12-29T19:09:18.432Z,5.32
2017-12-29T19:11:46.058Z,5.90
2017-12-29T19:14:13.638Z,6.28
2017-12-29T19:16:41.235Z,4.28
2017-12-29T19:19:11.860Z,4.50
2017-12-29T19:21:39.438Z,6.25
2017-12-29T19:24:07.019Z,5.55
2017-12-29T19:26:34.689Z,5.37
2017-12-29T19:29:02.279Z,5.68
2017-12-29T19:31:29.866Z,5.55
2017-12-29T19:33:57.485Z,6.25
2017-12-29T19:36:25.062Z,5.40
2017-12-29T19:38:53.423Z,5.40
2017-12-29T19:41:21.091Z,6.22
2017-12-29T19:43:48.694Z,4.72
2017-12-29T19:46:16.495Z,6.35
2017-12-29T19:48:45.169Z,5.80
2017-12-29T19:51:12.796Z,6.15
2017-12-29T19:53:40.427Z,5.05
2017-12-29T19:56:08.088Z,5.82
2017-12-29T19:58:36.467Z,4.95
2017-12-29T20:01:05.843Z,5.00
2017-12-29T20:03:33.566Z,4.97
2017-12-29T20:06:01.142Z,5.28
2017-12-29T20:08:29.732Z,5.87
2017-12-29T20:10:58.331Z,5.05
2017-12-29T20:13:26.043Z,5.87
2017-12-29T20:15:53.626Z,6.50
2017-12-29T20:18:21.203Z,7.10
2017-12-29T20:20:49.050Z,6.53
2017-12-29T20:23:16.659Z,6.43
2017-12-29T20:25:45.021Z,5.95
2017-12-29T20:28:13.306Z,8.27
2017-12-29T20:30:42.617Z,8.63
2017-12-29T20:33:11.404Z,8.18
2017-12-29T20:35:39.694Z,8.95
2017-12-29T20:38:10.202Z,8.80
2017-12-29T20:40:38.243Z,7.35
2017-12-29T20:43:08.755Z,9.40
2017-12-29T20:45:39.548Z,16.70
2017-12-29T20:48:07.803Z,14.32
2017-12-29T20:50:37.997Z,10.13
2017-12-29T20:53:08.204Z,10.02
2017-12-29T20:55:37.497Z,8.40
2017-12-29T20:58:06.137Z,8.68
2017-12-29T21:00:34.549Z,7.03
2017-12-29T21:03:03.537Z,7.97
2017-12-29T21:05:31.531Z,6.70
2017-12-29T21:07:59.842Z,7.65
2017-12-29T21:10:27.535Z,7.20
2017-12-29T21:12:55.277Z,7.85
2017-12-29T21:15:23.348Z,5.97
2017-12-29T21:17:51.914Z,5.60
2017-12-29T21:20:23.987Z,5.60
2017-12-29T21:22:51.697Z,5.85
2017-12-29T21:25:20.419Z,5.90
2017-12-29T21:27:48.351Z,6.85
2017-12-29T21:30:18.313Z,5.62
2017-12-29T21:32:46.650Z,6.97
2017-12-29T21:35:14.298Z,6.80
2017-12-29T21:37:43.219Z,5.47
2017-12-29T21:40:12.040Z,6.45
2017-12-29T21:42:39.714Z,5.22
2017-12-29T21:45:07.734Z,4.68
2017-12-29T21:47:37.136Z,5.68
2017-12-29T21:50:05.682Z,4.65
2017-12-29T21:52:33.260Z,5.10
2017-12-29T21:55:01.826Z,4.70
2017-12-29T21:57:30.367Z,4.50
2017-12-29T21:59:57.943Z,5.07
2017-12-29T22:02:25.556Z,4.55
2017-12-29T22:04:53.266Z,4.28
2017-12-29T22:07:20.846Z,5.05
2017-12-29T22:09:49.218Z,4.65
2017-12-29T22:12:17.533Z,4.70
2017-12-29T22:14:45.110Z,5.82
2017-12-29T22:17:12.812Z,5.22
2017-12-29T22:19:40.393Z,5.00
2017-12-29T22:22:08.083Z,5.82
2017-12-29T22:24:35.752Z,5.25
2017-12-29T22:27:04.111Z,5.55
2017-12-29T22:29:31.682Z,5.03
2017-12-29T22:31:59.302Z,5.10
2017-12-29T22:34:26.960Z,5.15
2017-12-29T22:36:54.581Z,5.70
2017-12-29T22:39:22.188Z,6.00
2017-12-29T22:41:49.798Z,5.15
2017-12-29T22:44:17.378Z,5.47
2017-12-29T22:46:45.731Z,5.05
2017-12-29T22:49:13.302Z,4.00
2017-12-29T22:51:40.954Z,4.70
2017-12-29T22:54:08.566Z,4.30
2017-12-29T22:56:36.146Z,4.00
2017-12-29T22:59:03.786Z,3.90
2017-12-29T23:01:31.424Z,5.10
2017-12-29T23:03:59.005Z,4.95
2017-12-29T23:06:26.582Z,5.50
2017-12-29T23:08:54.235Z,5.07
2017-12-29T23:11:22.042Z,5.20
2017-12-29T23:13:49.630Z,6.00
2017-12-29T23:16:17.199Z,5.22
2017-12-29T23:18:44.913Z,4.30
2017-12-29T23:21:12.517Z,4.55
2017-12-29T23:23:40.138Z,5.65
2017-12-29T23:26:07.857Z,5.35
2017-12-29T23:28:36.194Z,4.68
2017-12-29T23:31:03.769Z,4.90
2017-12-29T23:33:31.349Z,5.45
2017-12-29T23:35:58.929Z,4.95
2017-12-29T23:38:26.543Z,5.57
2017-12-29T23:40:54.169Z,4.45
2017-12-29T23:43:21.745Z,4.28
2017-12-29T23:45:49.386Z,5.30
2017-12-29T23:48:16.957Z,5.25
2017-12-29T23:50:44.613Z,5.00
2017-12-29T23:53:12.240Z,5.65
2017-12-29T23:55:39.823Z,5.10
2017-12-29T23:58:07.452Z,5.40
